sensor_id;sensor_type;location;lat;lon;timestamp;P1;durP1;ratioP1;P2;durP2;ratioP2
5999;SDS011;3028;49.468;7.694;2022-10-01T00:01:42;7.47;;;5.93;;
5999;SDS011;3028;49.468;7.694;2022-10-01T00:03:44;7.07;;;6.32;;
5999;SDS011;3028;49.468;7.694;2022-10-01T00:05:46;7.25;;;6.43;;
5999;SDS011;3028;49.468;7.694;2022-10-01T00:07:59;5.10;;;3.95;;
5999;SDS011;3028;49.468;7.694;2022-10-01T00:10:01;4.13;;;3.72;;
5999;SDS011;3028;49.468;7.694;2022-10-01T00:12:02;4.15;;;3.83;;
5999;SDS011;3028;49.468;7.694;2022-10-01T00:14:04;3.60;;;3.28;;
5999;SDS011;3028;49.468;7.694;2022-10-01T00:16:07;4.57;;;3.72;;
5999;SDS011;3028;49.468;7.694;2022-10-01T00:18:10;4.47;;;4.13;;
5999;SDS011;3028;49.468;7.694;2022-10-01T00:20:12;3.17;;;2.90;;
5999;SDS011;3028;49.468;7.694;2022-10-01T00:22:15;3.63;;;3.33;;
5999;SDS011;3028;49.468;7.694;2022-10-01T00:24:16;3.58;;;3.28;;
5999;SDS011;3028;49.468;7.694;2022-10-01T00:26:20;3.65;;;3.35;;
5999;SDS011;3028;49.468;7.694;2022-10-01T00:28:23;4.25;;;3.45;;
5999;SDS011;3028;49.468;7.694;2022-10-01T00:30:25;3.97;;;3.58;;
5999;SDS011;3028;49.468;7.694;2022-10-01T00:32:26;3.15;;;2.75;;
5999;SDS011;3028;49.468;7.694;2022-10-01T00:34:28;2.65;;;2.45;;
5999;SDS011;3028;49.468;7.694;2022-10-01T00:36:30;2.90;;;2.70;;
5999;SDS011;3028;49.468;7.694;2022-10-01T00:38:32;9.02;;;3.40;;
5999;SDS011;3028;49.468;7.694;2022-10-01T00:40:35;3.30;;;3.10;;
5999;SDS011;3028;49.468;7.694;2022-10-01T00:42:36;3.60;;;3.30;;
5999;SDS011;3028;49.468;7.694;2022-10-01T00:44:38;3.25;;;3.05;;
5999;SDS011;3028;49.468;7.694;2022-10-01T00:46:40;3.30;;;2.75;;
5999;SDS011;3028;49.468;7.694;2022-10-01T00:48:49;3.60;;;3.30;;
5999;SDS011;3028;49.468;7.694;2022-10-01T00:50:58;3.78;;;2.33;;
5999;SDS011;3028;49.468;7.694;2022-10-01T00:53:02;4.53;;;2.75;;
5999;SDS011;3028;49.468;7.694;2022-10-01T00:55:15;3.40;;;2.90;;
5999;SDS011;3028;49.468;7.694;2022-10-01T00:57:21;3.38;;;2.95;;
5999;SDS011;3028;49.468;7.694;2022-10-01T00:59:25;3.70;;;3.08;;
5999;SDS011;3028;49.468;7.694;2022-10-01T01:01:28;2.83;;;2.40;;
5999;SDS011;3028;49.468;7.694;2022-10-01T01:03:30;4.40;;;3.10;;
5999;SDS011;3028;49.468;7.694;2022-10-01T01:05:31;4.03;;;3.63;;
5999;SDS011;3028;49.468;7.694;2022-10-01T01:07:33;4.82;;;4.43;;
5999;SDS011;3028;49.468;7.694;2022-10-01T01:09:36;3.28;;;3.08;;
5999;SDS011;3028;49.468;7.694;2022-10-01T01:16:24;3.40;;;2.97;;
5999;SDS011;3028;49.468;7.694;2022-10-01T01:18:35;2.53;;;2.33;;
5999;SDS011;3028;49.468;7.694;2022-10-01T01:25:21;3.45;;;2.90;;
5999;SDS011;3028;49.468;7.694;2022-10-01T01:27:33;3.63;;;3.33;;
5999;SDS011;3028;49.468;7.694;2022-10-01T01:29:49;4.53;;;4.10;;
5999;SDS011;3028;49.468;7.694;2022-10-01T01:32:12;3.97;;;3.47;;
5999;SDS011;3028;49.468;7.694;2022-10-01T01:34:20;5.20;;;4.72;;
5999;SDS011;3028;49.468;7.694;2022-10-01T01:36:28;5.63;;;3.55;;
5999;SDS011;3028;49.468;7.694;2022-10-01T01:38:33;4.60;;;4.20;;
5999;SDS011;3028;49.468;7.694;2022-10-01T01:40:39;3.38;;;3.08;;
5999;SDS011;3028;49.468;7.694;2022-10-01T01:42:42;3.17;;;2.88;;
5999;SDS011;3028;49.468;7.694;2022-10-01T01:44:45;4.15;;;2.80;;
5999;SDS011;3028;49.468;7.694;2022-10-01T01:46:47;4.68;;;4.28;;
5999;SDS011;3028;49.468;7.694;2022-10-01T01:48:49;4.05;;;3.75;;
5999;SDS011;3028;49.468;7.694;2022-10-01T01:50:55;3.38;;;3.08;;
5999;SDS011;3028;49.468;7.694;2022-10-01T01:53:02;8.38;;;2.63;;
5999;SDS011;3028;49.468;7.694;2022-10-01T01:55:04;3.38;;;2.97;;
5999;SDS011;3028;49.468;7.694;2022-10-01T01:57:09;8.90;;;5.25;;
5999;SDS011;3028;49.468;7.694;2022-10-01T01:59:13;4.65;;;3.88;;
5999;SDS011;3028;49.468;7.694;2022-10-01T02:03:40;5.38;;;4.88;;
5999;SDS011;3028;49.468;7.694;2022-10-01T02:05:45;5.43;;;4.30;;
5999;SDS011;3028;49.468;7.694;2022-10-01T02:19:25;3.10;;;2.90;;
5999;SDS011;3028;49.468;7.694;2022-10-01T02:21:37;5.75;;;4.53;;
5999;SDS011;3028;49.468;7.694;2022-10-01T02:26:24;2.95;;;2.60;;
5999;SDS011;3028;49.468;7.694;2022-10-01T02:28:27;8.13;;;4.55;;
5999;SDS011;3028;49.468;7.694;2022-10-01T02:30:31;5.55;;;3.90;;
5999;SDS011;3028;49.468;7.694;2022-10-01T02:32:36;6.47;;;3.85;;
5999;SDS011;3028;49.468;7.694;2022-10-01T02:34:40;3.22;;;2.65;;
5999;SDS011;3028;49.468;7.694;2022-10-01T02:36:43;6.85;;;3.53;;
5999;SDS011;3028;49.468;7.694;2022-10-01T02:38:45;6.05;;;3.58;;
5999;SDS011;3028;49.468;7.694;2022-10-01T02:40:51;5.32;;;3.65;;
5999;SDS011;3028;49.468;7.694;2022-10-01T02:42:57;7.57;;;4.47;;
5999;SDS011;3028;49.468;7.694;2022-10-01T02:45:02;5.65;;;3.78;;
5999;SDS011;3028;49.468;7.694;2022-10-01T02:47:13;3.00;;;2.17;;
5999;SDS011;3028;49.468;7.694;2022-10-01T02:49:18;5.20;;;2.72;;
5999;SDS011;3028;49.468;7.694;2022-10-01T02:53:45;3.50;;;3.08;;
5999;SDS011;3028;49.468;7.694;2022-10-01T02:55:49;5.07;;;3.83;;
5999;SDS011;3028;49.468;7.694;2022-10-01T02:57:51;3.17;;;2.53;;
5999;SDS011;3028;49.468;7.694;2022-10-01T02:59:54;7.65;;;2.53;;
5999;SDS011;3028;49.468;7.694;2022-10-01T03:01:58;2.22;;;1.88;;
5999;SDS011;3028;49.468;7.694;2022-10-01T03:03:59;2.47;;;2.28;;
5999;SDS011;3028;49.468;7.694;2022-10-01T03:06:02;2.13;;;1.90;;
5999;SDS011;3028;49.468;7.694;2022-10-01T03:08:04;3.10;;;2.38;;
5999;SDS011;3028;49.468;7.694;2022-10-01T03:10:06;3.65;;;2.72;;
5999;SDS011;3028;49.468;7.694;2022-10-01T03:12:09;1.70;;;1.60;;
5999;SDS011;3028;49.468;7.694;2022-10-01T03:14:11;2.72;;;1.90;;
5999;SDS011;3028;49.468;7.694;2022-10-01T03:16:12;2.10;;;1.95;;
5999;SDS011;3028;49.468;7.694;2022-10-01T03:18:14;1.75;;;1.65;;
5999;SDS011;3028;49.468;7.694;2022-10-01T03:20:16;1.63;;;1.52;;
5999;SDS011;3028;49.468;7.694;2022-10-01T03:22:18;12.55;;;3.00;;
5999;SDS011;3028;49.468;7.694;2022-10-01T03:24:23;5.20;;;3.58;;
5999;SDS011;3028;49.468;7.694;2022-10-01T03:26:24;9.35;;;5.70;;
5999;SDS011;3028;49.468;7.694;2022-10-01T03:28:26;3.08;;;2.72;;
5999;SDS011;3028;49.468;7.694;2022-10-01T03:30:28;7.45;;;4.72;;
5999;SDS011;3028;49.468;7.694;2022-10-01T03:32:30;6.38;;;4.40;;
5999;SDS011;3028;49.468;7.694;2022-10-01T03:34:32;14.88;;;7.50;;
5999;SDS011;3028;49.468;7.694;2022-10-01T03:36:34;8.88;;;6.80;;
5999;SDS011;3028;49.468;7.694;2022-10-01T03:38:35;4.80;;;4.30;;
5999;SDS011;3028;49.468;7.694;2022-10-01T03:40:37;4.55;;;4.25;;
5999;SDS011;3028;49.468;7.694;2022-10-01T03:42:39;2.45;;;2.28;;
5999;SDS011;3028;49.468;7.694;2022-10-01T03:44:41;5.78;;;2.70;;
5999;SDS011;3028;49.468;7.694;2022-10-01T03:46:43;2.90;;;2.70;;
5999;SDS011;3028;49.468;7.694;2022-10-01T03:48:44;4.18;;;2.75;;
5999;SDS011;3028;49.468;7.694;2022-10-01T03:50:53;2.30;;;2.00;;
5999;SDS011;3028;49.468;7.694;2022-10-01T03:52:58;2.40;;;2.30;;
5999;SDS011;3028;49.468;7.694;2022-10-01T03:55:00;2.10;;;2.00;;
5999;SDS011;3028;49.468;7.694;2022-10-01T03:57:02;2.83;;;2.63;;
5999;SDS011;3028;49.468;7.694;2022-10-01T03:59:04;2.75;;;2.55;;
5999;SDS011;3028;49.468;7.694;2022-10-01T04:01:05;2.70;;;2.50;;
5999;SDS011;3028;49.468;7.694;2022-10-01T04:03:07;2.35;;;2.25;;
5999;SDS011;3028;49.468;7.694;2022-10-01T04:05:09;2.10;;;2.00;;
5999;SDS011;3028;49.468;7.694;2022-10-01T04:07:11;2.33;;;2.13;;
5999;SDS011;3028;49.468;7.694;2022-10-01T04:09:12;2.50;;;2.30;;
5999;SDS011;3028;49.468;7.694;2022-10-01T04:11:14;2.88;;;2.65;;
5999;SDS011;3028;49.468;7.694;2022-10-01T04:13:16;5.68;;;2.90;;
5999;SDS011;3028;49.468;7.694;2022-10-01T04:15:17;3.50;;;3.20;;
5999;SDS011;3028;49.468;7.694;2022-10-01T04:17:19;3.15;;;2.92;;
5999;SDS011;3028;49.468;7.694;2022-10-01T04:19:21;3.08;;;2.88;;
5999;SDS011;3028;49.468;7.694;2022-10-01T04:21:22;2.70;;;2.40;;
5999;SDS011;3028;49.468;7.694;2022-10-01T04:23:24;3.10;;;2.90;;
5999;SDS011;3028;49.468;7.694;2022-10-01T04:25:26;3.83;;;3.35;;
5999;SDS011;3028;49.468;7.694;2022-10-01T04:27:28;3.28;;;3.08;;
5999;SDS011;3028;49.468;7.694;2022-10-01T04:29:30;3.67;;;3.38;;
5999;SDS011;3028;49.468;7.694;2022-10-01T04:31:43;3.03;;;2.78;;
5999;SDS011;3028;49.468;7.694;2022-10-01T04:33:45;4.88;;;2.53;;
5999;SDS011;3028;49.468;7.694;2022-10-01T04:35:46;3.33;;;3.03;;
5999;SDS011;3028;49.468;7.694;2022-10-01T04:37:54;3.95;;;3.63;;
5999;SDS011;3028;49.468;7.694;2022-10-01T04:40:01;3.63;;;3.33;;
5999;SDS011;3028;49.468;7.694;2022-10-01T04:42:03;3.47;;;3.17;;
5999;SDS011;3028;49.468;7.694;2022-10-01T04:44:05;3.40;;;2.95;;
5999;SDS011;3028;49.468;7.694;2022-10-01T04:46:07;4.05;;;3.65;;
5999;SDS011;3028;49.468;7.694;2022-10-01T04:48:08;2.75;;;2.55;;
5999;SDS011;3028;49.468;7.694;2022-10-01T04:50:10;3.33;;;3.03;;
5999;SDS011;3028;49.468;7.694;2022-10-01T04:52:12;2.92;;;2.72;;
5999;SDS011;3028;49.468;7.694;2022-10-01T04:54:13;3.65;;;3.30;;
5999;SDS011;3028;49.468;7.694;2022-10-01T04:56:15;3.20;;;3.00;;
5999;SDS011;3028;49.468;7.694;2022-10-01T04:58:17;3.05;;;2.83;;
5999;SDS011;3028;49.468;7.694;2022-10-01T05:00:19;3.47;;;3.22;;
5999;SDS011;3028;49.468;7.694;2022-10-01T05:02:24;3.53;;;3.22;;
5999;SDS011;3028;49.468;7.694;2022-10-01T05:04:26;3.08;;;2.85;;
5999;SDS011;3028;49.468;7.694;2022-10-01T05:06:28;2.70;;;2.50;;
5999;SDS011;3028;49.468;7.694;2022-10-01T05:08:29;3.58;;;3.25;;
5999;SDS011;3028;49.468;7.694;2022-10-01T05:10:31;3.75;;;3.45;;
5999;SDS011;3028;49.468;7.694;2022-10-01T05:12:33;3.00;;;2.70;;
5999;SDS011;3028;49.468;7.694;2022-10-01T05:14:35;3.22;;;2.92;;
5999;SDS011;3028;49.468;7.694;2022-10-01T05:16:36;3.53;;;2.78;;
5999;SDS011;3028;49.468;7.694;2022-10-01T05:18:38;3.80;;;2.53;;
5999;SDS011;3028;49.468;7.694;2022-10-01T05:20:40;2.97;;;2.78;;
5999;SDS011;3028;49.468;7.694;2022-10-01T05:22:43;3.42;;;3.22;;
5999;SDS011;3028;49.468;7.694;2022-10-01T05:24:45;2.83;;;2.63;;
5999;SDS011;3028;49.468;7.694;2022-10-01T05:26:47;3.30;;;2.78;;
5999;SDS011;3028;49.468;7.694;2022-10-01T05:28:49;3.13;;;2.80;;
5999;SDS011;3028;49.468;7.694;2022-10-01T05:30:51;2.60;;;2.45;;
5999;SDS011;3028;49.468;7.694;2022-10-01T05:32:53;2.72;;;2.53;;
5999;SDS011;3028;49.468;7.694;2022-10-01T05:34:56;3.30;;;3.10;;
5999;SDS011;3028;49.468;7.694;2022-10-01T05:36:58;3.33;;;3.05;;
5999;SDS011;3028;49.468;7.694;2022-10-01T05:39:01;4.88;;;2.58;;
5999;SDS011;3028;49.468;7.694;2022-10-01T05:41:03;3.38;;;2.92;;
5999;SDS011;3028;49.468;7.694;2022-10-01T05:43:05;3.60;;;2.85;;
5999;SDS011;3028;49.468;7.694;2022-10-01T05:45:07;2.88;;;2.67;;
5999;SDS011;3028;49.468;7.694;2022-10-01T05:47:10;3.20;;;3.00;;
5999;SDS011;3028;49.468;7.694;2022-10-01T05:49:13;2.70;;;2.60;;
5999;SDS011;3028;49.468;7.694;2022-10-01T05:51:17;3.03;;;2.40;;
5999;SDS011;3028;49.468;7.694;2022-10-01T05:53:19;2.88;;;2.67;;
5999;SDS011;3028;49.468;7.694;2022-10-01T05:55:22;3.42;;;2.70;;
5999;SDS011;3028;49.468;7.694;2022-10-01T05:57:24;3.90;;;3.60;;
5999;SDS011;3028;49.468;7.694;2022-10-01T05:59:26;4.05;;;3.65;;
5999;SDS011;3028;49.468;7.694;2022-10-01T06:01:32;4.15;;;3.80;;
5999;SDS011;3028;49.468;7.694;2022-10-01T06:03:34;7.03;;;5.40;;
5999;SDS011;3028;49.468;7.694;2022-10-01T06:05:36;3.67;;;3.35;;
5999;SDS011;3028;49.468;7.694;2022-10-01T06:07:38;4.55;;;3.10;;
5999;SDS011;3028;49.468;7.694;2022-10-01T06:09:39;3.53;;;3.20;;
5999;SDS011;3028;49.468;7.694;2022-10-01T06:11:41;2.88;;;2.55;;
5999;SDS011;3028;49.468;7.694;2022-10-01T06:13:43;3.90;;;3.60;;
5999;SDS011;3028;49.468;7.694;2022-10-01T06:15:45;4.55;;;3.90;;
5999;SDS011;3028;49.468;7.694;2022-10-01T06:17:47;4.30;;;3.35;;
5999;SDS011;3028;49.468;7.694;2022-10-01T06:19:49;3.05;;;2.85;;
5999;SDS011;3028;49.468;7.694;2022-10-01T06:21:51;4.22;;;3.92;;
5999;SDS011;3028;49.468;7.694;2022-10-01T06:23:56;5.07;;;4.70;;
5999;SDS011;3028;49.468;7.694;2022-10-01T06:25:58;4.78;;;4.38;;
5999;SDS011;3028;49.468;7.694;2022-10-01T06:28:01;5.82;;;4.63;;
5999;SDS011;3028;49.468;7.694;2022-10-01T06:30:04;4.70;;;4.30;;
5999;SDS011;3028;49.468;7.694;2022-10-01T06:32:06;4.75;;;4.35;;
5999;SDS011;3028;49.468;7.694;2022-10-01T06:34:09;3.47;;;3.17;;
5999;SDS011;3028;49.468;7.694;2022-10-01T06:36:10;4.03;;;3.67;;
5999;SDS011;3028;49.468;7.694;2022-10-01T06:38:12;3.78;;;3.40;;
5999;SDS011;3028;49.468;7.694;2022-10-01T06:40:14;3.65;;;2.92;;
5999;SDS011;3028;49.468;7.694;2022-10-01T06:42:16;4.95;;;4.43;;
5999;SDS011;3028;49.468;7.694;2022-10-01T06:44:17;6.38;;;3.88;;
5999;SDS011;3028;49.468;7.694;2022-10-01T06:46:20;5.68;;;4.55;;
5999;SDS011;3028;49.468;7.694;2022-10-01T06:48:22;4.82;;;4.43;;
5999;SDS011;3028;49.468;7.694;2022-10-01T06:50:24;5.85;;;5.30;;
5999;SDS011;3028;49.468;7.694;2022-10-01T06:52:26;4.63;;;4.32;;
5999;SDS011;3028;49.468;7.694;2022-10-01T06:54:46;2.85;;;2.65;;
5999;SDS011;3028;49.468;7.694;2022-10-01T06:56:47;2.17;;;2.08;;
5999;SDS011;3028;49.468;7.694;2022-10-01T06:58:49;1.90;;;1.80;;
5999;SDS011;3028;49.468;7.694;2022-10-01T07:00:51;2.15;;;1.98;;
5999;SDS011;3028;49.468;7.694;2022-10-01T07:02:58;1.95;;;1.85;;
5999;SDS011;3028;49.468;7.694;2022-10-01T07:05:01;2.10;;;1.77;;
5999;SDS011;3028;49.468;7.694;2022-10-01T07:07:03;1.23;;;1.23;;
5999;SDS011;3028;49.468;7.694;2022-10-01T07:09:05;1.73;;;1.63;;
5999;SDS011;3028;49.468;7.694;2022-10-01T07:11:07;1.80;;;1.70;;
5999;SDS011;3028;49.468;7.694;2022-10-01T07:13:12;1.58;;;1.48;;
5999;SDS011;3028;49.468;7.694;2022-10-01T07:15:17;2.00;;;1.80;;
5999;SDS011;3028;49.468;7.694;2022-10-01T07:17:20;1.73;;;1.63;;
5999;SDS011;3028;49.468;7.694;2022-10-01T07:19:22;1.88;;;1.77;;
5999;SDS011;3028;49.468;7.694;2022-10-01T07:21:24;1.83;;;1.73;;
5999;SDS011;3028;49.468;7.694;2022-10-01T07:23:26;2.08;;;1.65;;
5999;SDS011;3028;49.468;7.694;2022-10-01T07:25:28;1.30;;;1.20;;
5999;SDS011;3028;49.468;7.694;2022-10-01T07:27:30;2.50;;;1.50;;
5999;SDS011;3028;49.468;7.694;2022-10-01T07:29:31;1.42;;;1.35;;
5999;SDS011;3028;49.468;7.694;2022-10-01T07:31:33;1.27;;;1.27;;
5999;SDS011;3028;49.468;7.694;2022-10-01T07:33:35;1.13;;;1.10;;
5999;SDS011;3028;49.468;7.694;2022-10-01T07:35:40;1.33;;;1.23;;
5999;SDS011;3028;49.468;7.694;2022-10-01T07:37:42;1.70;;;1.10;;
5999;SDS011;3028;49.468;7.694;2022-10-01T07:39:44;1.20;;;1.10;;
5999;SDS011;3028;49.468;7.694;2022-10-01T07:41:45;2.83;;;1.20;;
5999;SDS011;3028;49.468;7.694;2022-10-01T07:43:47;8.80;;;7.88;;
5999;SDS011;3028;49.468;7.694;2022-10-01T07:45:50;1.48;;;1.38;;
5999;SDS011;3028;49.468;7.694;2022-10-01T07:47:56;2.35;;;1.38;;
5999;SDS011;3028;49.468;7.694;2022-10-01T07:49:59;1.60;;;1.15;;
5999;SDS011;3028;49.468;7.694;2022-10-01T07:52:05;1.55;;;1.42;;
5999;SDS011;3028;49.468;7.694;2022-10-01T07:54:13;1.23;;;1.13;;
5999;SDS011;3028;49.468;7.694;2022-10-01T07:56:15;2.45;;;1.50;;
5999;SDS011;3028;49.468;7.694;2022-10-01T07:58:17;1.40;;;1.30;;
5999;SDS011;3028;49.468;7.694;2022-10-01T08:00:19;1.40;;;1.30;;
5999;SDS011;3028;49.468;7.694;2022-10-01T08:02:21;1.00;;;1.00;;
5999;SDS011;3028;49.468;7.694;2022-10-01T08:04:23;1.55;;;1.45;;
5999;SDS011;3028;49.468;7.694;2022-10-01T08:06:43;1.23;;;1.20;;
5999;SDS011;3028;49.468;7.694;2022-10-01T08:08:49;1.10;;;1.10;;
5999;SDS011;3028;49.468;7.694;2022-10-01T08:10:50;0.95;;;0.95;;
5999;SDS011;3028;49.468;7.694;2022-10-01T08:12:57;1.38;;;1.27;;
5999;SDS011;3028;49.468;7.694;2022-10-01T08:15:08;1.10;;;1.10;;
5999;SDS011;3028;49.468;7.694;2022-10-01T08:17:14;1.30;;;1.20;;
5999;SDS011;3028;49.468;7.694;2022-10-01T08:19:15;1.38;;;1.27;;
5999;SDS011;3028;49.468;7.694;2022-10-01T08:21:17;1.20;;;1.10;;
5999;SDS011;3028;49.468;7.694;2022-10-01T08:23:19;1.13;;;1.02;;
5999;SDS011;3028;49.468;7.694;2022-10-01T08:25:21;1.25;;;1.00;;
5999;SDS011;3028;49.468;7.694;2022-10-01T08:27:23;1.25;;;0.90;;
5999;SDS011;3028;49.468;7.694;2022-10-01T08:29:25;1.23;;;1.00;;
5999;SDS011;3028;49.468;7.694;2022-10-01T08:31:27;1.13;;;1.10;;
5999;SDS011;3028;49.468;7.694;2022-10-01T08:33:29;1.08;;;1.08;;
5999;SDS011;3028;49.468;7.694;2022-10-01T08:35:31;1.23;;;1.10;;
5999;SDS011;3028;49.468;7.694;2022-10-01T08:37:32;1.25;;;1.08;;
5999;SDS011;3028;49.468;7.694;2022-10-01T08:39:35;0.98;;;0.95;;
5999;SDS011;3028;49.468;7.694;2022-10-01T08:43:49;1.63;;;1.52;;
5999;SDS011;3028;49.468;7.694;2022-10-01T08:45:52;0.98;;;0.95;;
5999;SDS011;3028;49.468;7.694;2022-10-01T08:48:00;1.20;;;1.20;;
5999;SDS011;3028;49.468;7.694;2022-10-01T08:50:11;1.08;;;1.00;;
5999;SDS011;3028;49.468;7.694;2022-10-01T08:52:29;0.90;;;0.90;;
5999;SDS011;3028;49.468;7.694;2022-10-01T08:54:41;1.80;;;1.13;;
5999;SDS011;3028;49.468;7.694;2022-10-01T08:56:46;2.00;;;1.90;;
5999;SDS011;3028;49.468;7.694;2022-10-01T08:58:50;1.02;;;0.90;;
5999;SDS011;3028;49.468;7.694;2022-10-01T09:00:55;0.93;;;0.93;;
5999;SDS011;3028;49.468;7.694;2022-10-01T09:02:57;1.27;;;1.20;;
5999;SDS011;3028;49.468;7.694;2022-10-01T09:05:05;0.90;;;0.90;;
5999;SDS011;3028;49.468;7.694;2022-10-01T09:09:50;2.15;;;1.10;;
5999;SDS011;3028;49.468;7.694;2022-10-01T09:14:23;1.08;;;1.00;;
5999;SDS011;3028;49.468;7.694;2022-10-01T09:20:59;1.55;;;1.33;;
5999;SDS011;3028;49.468;7.694;2022-10-01T09:27:15;1.25;;;1.15;;
5999;SDS011;3028;49.468;7.694;2022-10-01T09:29:26;1.20;;;1.10;;
5999;SDS011;3028;49.468;7.694;2022-10-01T09:31:39;1.60;;;1.50;;
5999;SDS011;3028;49.468;7.694;2022-10-01T09:33:50;1.35;;;1.10;;
5999;SDS011;3028;49.468;7.694;2022-10-01T09:38:38;1.83;;;1.48;;
5999;SDS011;3028;49.468;7.694;2022-10-01T09:40:59;1.27;;;1.08;;
5999;SDS011;3028;49.468;7.694;2022-10-01T09:43:01;1.10;;;0.90;;
5999;SDS011;3028;49.468;7.694;2022-10-01T09:45:04;1.05;;;0.95;;
5999;SDS011;3028;49.468;7.694;2022-10-01T09:47:16;2.30;;;1.58;;
5999;SDS011;3028;49.468;7.694;2022-10-01T09:49:36;2.13;;;1.50;;
5999;SDS011;3028;49.468;7.694;2022-10-01T09:51:47;1.27;;;1.17;;
5999;SDS011;3028;49.468;7.694;2022-10-01T09:56:13;1.20;;;1.10;;
5999;SDS011;3028;49.468;7.694;2022-10-01T09:58:19;2.28;;;2.17;;
5999;SDS011;3028;49.468;7.694;2022-10-01T10:00:24;0.90;;;0.90;;
5999;SDS011;3028;49.468;7.694;2022-10-01T10:02:48;0.93;;;0.93;;
5999;SDS011;3028;49.468;7.694;2022-10-01T10:05:00;0.98;;;0.98;;
5999;SDS011;3028;49.468;7.694;2022-10-01T10:07:03;1.40;;;1.30;;
5999;SDS011;3028;49.468;7.694;2022-10-01T10:09:10;0.80;;;0.80;;
5999;SDS011;3028;49.468;7.694;2022-10-01T10:11:19;1.20;;;1.20;;
5999;SDS011;3028;49.468;7.694;2022-10-01T10:15:27;1.25;;;1.23;;
5999;SDS011;3028;49.468;7.694;2022-10-01T10:17:31;1.10;;;1.00;;
5999;SDS011;3028;49.468;7.694;2022-10-01T10:19:35;1.15;;;1.10;;
5999;SDS011;3028;49.468;7.694;2022-10-01T10:21:37;1.88;;;0.90;;
5999;SDS011;3028;49.468;7.694;2022-10-01T10:23:56;0.73;;;0.73;;
5999;SDS011;3028;49.468;7.694;2022-10-01T10:26:00;0.95;;;0.95;;
5999;SDS011;3028;49.468;7.694;2022-10-01T10:28:03;1.58;;;0.90;;
5999;SDS011;3028;49.468;7.694;2022-10-01T10:30:09;0.70;;;0.70;;
5999;SDS011;3028;49.468;7.694;2022-10-01T10:32:21;0.90;;;0.90;;
5999;SDS011;3028;49.468;7.694;2022-10-01T10:34:28;0.90;;;0.90;;
5999;SDS011;3028;49.468;7.694;2022-10-01T10:36:34;1.00;;;1.00;;
5999;SDS011;3028;49.468;7.694;2022-10-01T10:38:37;0.90;;;0.90;;
5999;SDS011;3028;49.468;7.694;2022-10-01T10:40:40;1.65;;;0.80;;
5999;SDS011;3028;49.468;7.694;2022-10-01T10:42:46;1.38;;;1.27;;
5999;SDS011;3028;49.468;7.694;2022-10-01T10:44:53;0.77;;;0.77;;
5999;SDS011;3028;49.468;7.694;2022-10-01T10:46:59;0.82;;;0.82;;
5999;SDS011;3028;49.468;7.694;2022-10-01T10:49:04;0.77;;;0.77;;
5999;SDS011;3028;49.468;7.694;2022-10-01T10:51:18;1.00;;;1.00;;
5999;SDS011;3028;49.468;7.694;2022-10-01T10:53:21;1.10;;;1.10;;
5999;SDS011;3028;49.468;7.694;2022-10-01T10:55:26;5.72;;;1.10;;
5999;SDS011;3028;49.468;7.694;2022-10-01T10:57:31;1.02;;;1.00;;
5999;SDS011;3028;49.468;7.694;2022-10-01T10:59:34;1.23;;;1.10;;
5999;SDS011;3028;49.468;7.694;2022-10-01T11:01:36;0.90;;;0.90;;
5999;SDS011;3028;49.468;7.694;2022-10-01T11:03:42;1.60;;;1.50;;
5999;SDS011;3028;49.468;7.694;2022-10-01T11:05:46;2.85;;;1.05;;
5999;SDS011;3028;49.468;7.694;2022-10-01T11:07:53;1.50;;;1.40;;
5999;SDS011;3028;49.468;7.694;2022-10-01T11:34:30;3.15;;;2.67;;
5999;SDS011;3028;49.468;7.694;2022-10-01T11:39:35;2.08;;;1.45;;
5999;SDS011;3028;49.468;7.694;2022-10-01T11:41:42;2.35;;;1.65;;
5999;SDS011;3028;49.468;7.694;2022-10-01T11:44:00;1.73;;;1.50;;
5999;SDS011;3028;49.468;7.694;2022-10-01T11:46:24;3.20;;;2.22;;
5999;SDS011;3028;49.468;7.694;2022-10-01T11:48:28;1.58;;;1.45;;
5999;SDS011;3028;49.468;7.694;2022-10-01T11:50:41;1.30;;;1.20;;
5999;SDS011;3028;49.468;7.694;2022-10-01T11:53:10;1.48;;;1.38;;
5999;SDS011;3028;49.468;7.694;2022-10-01T11:57:51;1.88;;;1.58;;
5999;SDS011;3028;49.468;7.694;2022-10-01T12:00:24;1.50;;;1.40;;
5999;SDS011;3028;49.468;7.694;2022-10-01T12:02:33;1.23;;;1.13;;
5999;SDS011;3028;49.468;7.694;2022-10-01T12:04:41;1.42;;;1.40;;
5999;SDS011;3028;49.468;7.694;2022-10-01T12:09:20;1.45;;;1.35;;
5999;SDS011;3028;49.468;7.694;2022-10-01T12:11:28;10.25;;;7.63;;
5999;SDS011;3028;49.468;7.694;2022-10-01T12:13:46;5.28;;;4.78;;
5999;SDS011;3028;49.468;7.694;2022-10-01T12:15:54;6.57;;;5.97;;
5999;SDS011;3028;49.468;7.694;2022-10-01T12:18:00;5.65;;;5.13;;
5999;SDS011;3028;49.468;7.694;2022-10-01T12:20:11;4.03;;;2.92;;
5999;SDS011;3028;49.468;7.694;2022-10-01T12:22:19;9.35;;;3.08;;
5999;SDS011;3028;49.468;7.694;2022-10-01T12:24:26;4.43;;;3.22;;
5999;SDS011;3028;49.468;7.694;2022-10-01T12:28:36;3.95;;;3.15;;
5999;SDS011;3028;49.468;7.694;2022-10-01T12:30:44;6.07;;;1.75;;
5999;SDS011;3028;49.468;7.694;2022-10-01T12:35:20;2.10;;;1.92;;
5999;SDS011;3028;49.468;7.694;2022-10-01T12:56:36;2.65;;;2.45;;
5999;SDS011;3028;49.468;7.694;2022-10-01T13:05:54;2.92;;;1.17;;
5999;SDS011;3028;49.468;7.694;2022-10-01T13:14:36;3.72;;;1.52;;
5999;SDS011;3028;49.468;7.694;2022-10-01T13:16:51;1.25;;;1.13;;
5999;SDS011;3028;49.468;7.694;2022-10-01T13:26:07;1.30;;;1.20;;
5999;SDS011;3028;49.468;7.694;2022-10-01T13:28:15;1.73;;;1.60;;
5999;SDS011;3028;49.468;7.694;2022-10-01T13:30:26;1.70;;;1.20;;
5999;SDS011;3028;49.468;7.694;2022-10-01T13:32:36;1.33;;;1.10;;
5999;SDS011;3028;49.468;7.694;2022-10-01T13:34:51;2.10;;;1.40;;
5999;SDS011;3028;49.468;7.694;2022-10-01T13:36:53;2.17;;;1.63;;
5999;SDS011;3028;49.468;7.694;2022-10-01T13:38:55;2.75;;;1.42;;
5999;SDS011;3028;49.468;7.694;2022-10-01T13:41:00;2.53;;;1.75;;
5999;SDS011;3028;49.468;7.694;2022-10-01T13:43:14;1.58;;;1.48;;
5999;SDS011;3028;49.468;7.694;2022-10-01T13:47:28;1.08;;;0.98;;
5999;SDS011;3028;49.468;7.694;2022-10-01T13:49:31;1.48;;;1.20;;
5999;SDS011;3028;49.468;7.694;2022-10-01T13:51:34;1.20;;;1.02;;
5999;SDS011;3028;49.468;7.694;2022-10-01T13:55:42;3.35;;;1.20;;
5999;SDS011;3028;49.468;7.694;2022-10-01T13:57:45;1.10;;;1.00;;
5999;SDS011;3028;49.468;7.694;2022-10-01T13:59:56;1.30;;;1.10;;
5999;SDS011;3028;49.468;7.694;2022-10-01T14:02:22;4.50;;;1.55;;
5999;SDS011;3028;49.468;7.694;2022-10-01T14:04:39;1.77;;;1.67;;
5999;SDS011;3028;49.468;7.694;2022-10-01T14:06:44;1.10;;;1.10;;
5999;SDS011;3028;49.468;7.694;2022-10-01T14:08:51;2.33;;;1.83;;
5999;SDS011;3028;49.468;7.694;2022-10-01T14:11:07;1.38;;;1.27;;
5999;SDS011;3028;49.468;7.694;2022-10-01T14:13:33;1.58;;;1.20;;
5999;SDS011;3028;49.468;7.694;2022-10-01T14:15:56;1.80;;;1.20;;
5999;SDS011;3028;49.468;7.694;2022-10-01T14:18:38;2.25;;;2.05;;
5999;SDS011;3028;49.468;7.694;2022-10-01T14:20:38;2.70;;;1.27;;
5999;SDS011;3028;49.468;7.694;2022-10-01T14:34:24;1.50;;;1.40;;
5999;SDS011;3028;49.468;7.694;2022-10-01T14:36:29;1.60;;;1.50;;
5999;SDS011;3028;49.468;7.694;2022-10-01T14:38:35;4.20;;;1.98;;
5999;SDS011;3028;49.468;7.694;2022-10-01T14:40:41;2.75;;;1.83;;
5999;SDS011;3028;49.468;7.694;2022-10-01T14:42:43;4.72;;;1.35;;
5999;SDS011;3028;49.468;7.694;2022-10-01T14:44:55;2.75;;;1.35;;
5999;SDS011;3028;49.468;7.694;2022-10-01T14:46:58;2.08;;;1.40;;
5999;SDS011;3028;49.468;7.694;2022-10-01T14:49:00;2.80;;;1.30;;
5999;SDS011;3028;49.468;7.694;2022-10-01T14:51:03;1.58;;;1.48;;
5999;SDS011;3028;49.468;7.694;2022-10-01T14:53:10;2.50;;;1.70;;
5999;SDS011;3028;49.468;7.694;2022-10-01T14:55:17;2.28;;;1.40;;
5999;SDS011;3028;49.468;7.694;2022-10-01T14:59:39;2.28;;;1.88;;
5999;SDS011;3028;49.468;7.694;2022-10-01T15:01:41;2.47;;;1.90;;
5999;SDS011;3028;49.468;7.694;2022-10-01T15:03:42;2.28;;;2.03;;
5999;SDS011;3028;49.468;7.694;2022-10-01T15:05:45;4.05;;;2.33;;
5999;SDS011;3028;49.468;7.694;2022-10-01T15:07:49;6.82;;;4.75;;
5999;SDS011;3028;49.468;7.694;2022-10-01T15:09:51;5.47;;;4.10;;
5999;SDS011;3028;49.468;7.694;2022-10-01T15:11:52;6.80;;;6.20;;
5999;SDS011;3028;49.468;7.694;2022-10-01T15:13:55;4.43;;;3.75;;
5999;SDS011;3028;49.468;7.694;2022-10-01T15:16:01;4.63;;;3.03;;
5999;SDS011;3028;49.468;7.694;2022-10-01T15:18:03;4.30;;;2.95;;
5999;SDS011;3028;49.468;7.694;2022-10-01T15:20:05;5.35;;;4.85;;
5999;SDS011;3028;49.468;7.694;2022-10-01T15:22:09;3.38;;;3.03;;
5999;SDS011;3028;49.468;7.694;2022-10-01T15:24:23;2.50;;;2.20;;